LIRQLIPE

Guest
Details From LIRQ - Firenze
To LIPE - BOLOGNA
Flight Number -
Tags generated
Created
Modified
Stats Distance 44 nm / 81 km
Max Altitude 0 ft / 0 m
Waypoints 3
Social Downloads 2
Likes 0
Share VATSIM

Download

Looking for another format? Having issues loading an existing format? Contact us
Advertisement - Login to hide

Notes

Basic altitude profile: - Ascent Rate: 1000ft/min - Ascent Speed: 80kts - Cruise Altitude: 6000ft - Cruise Speed: 100kts - Descent Rate: 200ft/min - Descent Speed: 100kts Options: - Use NATs: yes - Use PACOTS: yes - Use low airways: yes - Use high airways: no

Route

LIRQ BOA LIPE

ID Type Via Altitude (ft/m) Position (lat/lon) Dist (leg/tot) Name
O LIRQ APT - 0 / 0 43.80998 / 11.20512 - / 0 nm Firenze
BOA VOR - 0 / 0 44.53694 / 11.29055 43 / 43 nm BOLOGNA VOR-DME
O LIPE APT - 0 / 0 44.53545 / 11.28866 0 / 43 nm BOLOGNA

Altitude Profile

Advertisement - Login to hide

LIRQ

Details ICAO LIRQ (FLR)
Name Firenze
Region Italy
Timezone Europe/Rome (UTC+2.0)
Stats Elevation 142 ft / 43 m (AMSL)
Location 43.810000° 11.205100°
Runways 1
Magnetic Variation 2.969° E

METAR

LIRQ 210450Z 04002KT CAVOK 10/09 Q1020

Decode

TAF

TAF LIRQ 202300Z 2100/2124 VRB04KT CAVOK BECMG 2110/2112 04012KT

Decode

Departure Runways

ID Width Length Bearing (true/mag) Surface Threshold Overrun Markings Lighting
05 98 ft / 30 m 5,133 ft / 1,565 m 48.11° / 45.14° ASPHALT 344 ft / 105 m 0 ft / 0 m PREC-APP EDGE THRESHOLD SSALF REIL-OMNI
23 98 ft / 30 m 5,133 ft / 1,565 m 228.12° / 225.15° ASPHALT 1,909 ft / 582 m 0 ft / 0 m PREC-APP EDGE THRESHOLD REIL-OMNI

LIPE

Details ICAO LIPE (BLQ)
Name Bologna
Region Italy
Timezone Europe/Rome (UTC+2.0)
Stats Elevation 123 ft / 37 m (AMSL)
Location 44.535600° 11.288300°
Runways 1
Magnetic Variation 3.013° E

METAR

LIPE 210450Z VRB01KT 8000 NSC 12/10 Q1020

Decode

TAF

TAF LIPE 202300Z 2100/2124 VRB05KT 6000 NSC TEMPO 2100/2106 2000 BR BECMG 2110/2112 08010KT TEMPO 2114/2118 SHRA BECMG 2117/2119 VRB05KT

Decode

Destination Runways

ID Width Length Bearing (true/mag) Surface Threshold Overrun Markings Lighting
12 148 ft / 45 m 9,205 ft / 2,806 m 116.78° / 113.77° ASPHALT 1,017 ft / 310 m 0 ft / 0 m PREC-APP CENTERLINE EDGE THRESHOLD ALSF-I TDZ REIL-OMNI
30 148 ft / 45 m 9,205 ft / 2,806 m 296.81° / 293.79° ASPHALT 1,194 ft / 364 m 174 ft / 53 m APP CENTERLINE EDGE THRESHOLD SALS REIL-OMNI

Approach Navaids

Runway Type Ident Frequency Range Bearing (true/mag) Slope Elevation
12 OM OM - - 116.80° / 113.78 ° - 123 ft / 37 m (AMSL)
12 DME BLN 108.90 MHz 18 nm / 33 km - - 131 ft / 40 m (AMSL)
12 LOC-ILS BLN 108.90 MHz 18 nm / 33 km 116.81° / 113.80 ° - 123 ft / 37 m (AMSL)
12 GS BLN 108.90 MHz 10 nm / 19 km 117.59° / 114.58 ° 3.00° 120 ft / 37 m (AMSL)
30 GS IBBP 109.75 MHz 10 nm / 19 km 297.75° / 294.74 ° 3.50° 123 ft / 37 m (AMSL)
30 DME IBBP 109.75 MHz 18 nm / 33 km - - 123 ft / 37 m (AMSL)
30 LOC-ILS IBBP 109.75 MHz 18 nm / 33 km 296.66° / 293.65 ° - 123 ft / 37 m (AMSL)

Popular Alternatives